Terminal Aerodrome Forecast
Issued by NWS St Louis, MO

Home | Current Version | Previous Version | Text Only | Print | Product List | Glossary On
Versions: 1 2 3 4 5 6 7 8 9 10 11 12 13 14 15 16 17 18 19 20
000
FTUS43 KLSX 172200 AAA
TAFCOU
TAF AMD
KCOU 172200Z 1722/1818 28014G24KT P6SM SKC
     FM180100 VRB04KT P6SM SKC
     FM180800 14008KT P6SM SKC
     FM181500 17014G21KT P6SM SCT250=

USA.gov is the U.S. government's official web portal to all federal, state and local government web resources and services.